Time;durP1;ratioP1;P1;durP2;ratioP2;P2;SDS_P1;SDS_P2;PMS_P1;PMS_P2;Temp;Humidity;BMP_temperature;BMP_pressure;BME280_temperature;BME280_humidity;BME280_pressure;Samples;Min_cycle;Max_cycle;Signal;HPM_P1;HPM_P2
2022/04/24 00:00:02;;;;;;;16.97;11.60;;;8.70;69.00;;;;;;5043818;28;20060;-67
2022/04/24 00:02:28;;;;;;;17.90;12.52;;;8.80;68.90;;;;;;5043301;28;20076;-67
2022/04/24 00:04:53;;;;;;;15.83;11.23;;;8.70;69.00;;;;;;5039788;28;20076;-67
2022/04/24 00:07:19;;;;;;;15.47;11.97;;;8.70;68.90;;;;;;5046679;28;20144;-67
2022/04/24 00:09:45;;;;;;;17.70;11.77;;;8.70;68.90;;;;;;5043446;28;20512;-67
2022/04/24 00:12:15;;;;;;;16.07;11.47;;;8.60;69.00;;;;;;5046158;28;20604;-67
2022/04/24 00:14:45;;;;;;;14.10;11.20;;;8.60;69.00;;;;;;5048368;28;20037;-67
2022/04/24 00:17:12;;;;;;;15.65;11.63;;;8.60;69.00;;;;;;5002737;28;20069;-67
2022/04/24 00:19:38;;;;;;;15.45;10.85;;;8.50;68.90;;;;;;5042790;28;20041;-67
2022/04/24 00:22:04;;;;;;;13.60;10.40;;;8.50;68.90;;;;;;5058603;28;20483;-67
2022/04/24 00:24:32;;;;;;;15.02;11.23;;;8.40;69.10;;;;;;5014968;28;20049;-67
2022/04/24 00:26:58;;;;;;;12.85;10.10;;;8.30;69.00;;;;;;5042329;28;20046;-67
2022/04/24 00:29:24;;;;;;;12.15;10.25;;;8.30;69.30;;;;;;5044693;28;20147;-67
2022/04/24 00:31:50;;;;;;;14.60;10.27;;;8.30;69.20;;;;;;5034335;28;20133;-67
2022/04/24 00:34:16;;;;;;;14.03;11.30;;;8.30;69.40;;;;;;5018511;28;20037;-67
2022/04/24 00:36:42;;;;;;;12.33;9.30;;;8.30;69.10;;;;;;5044560;28;20091;-67
2022/04/24 00:39:08;;;;;;;12.77;10.02;;;8.30;69.00;;;;;;5010900;28;20099;-67
2022/04/24 00:41:34;;;;;;;13.87;10.03;;;8.30;69.10;;;;;;5010950;28;20049;-67
2022/04/24 00:43:59;;;;;;;11.80;9.23;;;8.20;68.90;;;;;;5043627;28;20041;-67
2022/04/24 00:46:42;;;;;;;12.37;9.90;;;8.20;69.30;;;;;;5027255;28;20878;-67
2022/04/24 00:49:09;;;;;;;10.75;9.00;;;8.20;68.80;;;;;;5038993;28;20040;-67
2022/04/24 00:51:37;;;;;;;13.35;9.20;;;8.10;69.20;;;;;;5045240;28;20041;-67
2022/04/24 00:54:06;;;;;;;11.98;9.23;;;8.10;68.80;;;;;;5027427;28;20045;-67
2022/04/24 00:56:32;;;;;;;11.90;9.27;;;8.10;68.90;;;;;;5002079;28;20042;-67
2022/04/24 00:59:04;;;;;;;12.27;9.82;;;8.10;69.10;;;;;;5038087;28;20048;-67
2022/04/24 01:01:31;;;;;;;12.45;9.68;;;8.10;69.00;;;;;;5020397;28;20055;-67
2022/04/24 01:04:02;;;;;;;11.73;9.38;;;8.00;68.90;;;;;;5010560;28;20049;-67
2022/04/24 01:06:31;;;;;;;11.93;9.95;;;8.00;69.10;;;;;;5034967;28;20048;-67
2022/04/24 01:09:08;;;;;;;12.88;9.52;;;8.00;69.10;;;;;;5047435;28;20044;-67
2022/04/24 01:11:34;;;;;;;14.50;9.82;;;8.00;69.20;;;;;;5041544;28;20744;-67
2022/04/24 01:14:00;;;;;;;11.77;9.80;;;7.90;69.20;;;;;;5042021;28;20128;-67
2022/04/24 01:16:25;;;;;;;13.07;9.53;;;7.90;69.20;;;;;;5020345;28;20056;-67
2022/04/24 01:18:51;;;;;;;12.50;9.37;;;7.90;69.30;;;;;;5039133;28;20026;-67
2022/04/24 01:21:17;;;;;;;12.90;9.37;;;7.80;69.30;;;;;;5008533;28;20134;-67
2022/04/24 01:23:43;;;;;;;13.07;10.00;;;7.80;69.50;;;;;;4987116;28;20536;-67
2022/04/24 01:26:09;;;;;;;12.27;9.10;;;7.70;69.50;;;;;;5021544;28;20056;-67
2022/04/24 01:28:34;;;;;;;12.57;9.30;;;7.70;69.50;;;;;;5026532;28;20045;-67
2022/04/24 01:31:00;;;;;;;10.53;8.97;;;7.60;69.70;;;;;;5007951;28;20046;-67
2022/04/24 01:33:28;;;;;;;10.63;9.00;;;7.60;69.80;;;;;;5007217;28;20073;-67
2022/04/24 01:35:54;;;;;;;10.82;9.00;;;7.60;69.90;;;;;;5003870;28;20063;-67
2022/04/24 01:38:20;;;;;;;12.93;9.73;;;7.60;69.90;;;;;;5017776;28;20065;-67
2022/04/24 01:40:46;;;;;;;11.02;9.55;;;7.60;69.90;;;;;;5025073;28;20053;-67
2022/04/24 01:43:11;;;;;;;13.43;9.13;;;7.60;69.70;;;;;;5027174;28;20049;-67
2022/04/24 01:45:37;;;;;;;12.03;9.07;;;7.50;69.80;;;;;;4994056;28;20084;-67
2022/04/24 01:48:03;;;;;;;14.60;9.47;;;7.50;70.00;;;;;;5026440;28;20099;-67
2022/04/24 01:50:28;;;;;;;11.80;9.33;;;7.40;69.90;;;;;;5022092;28;20061;-67
2022/04/24 01:52:56;;;;;;;13.67;9.40;;;7.30;70.10;;;;;;5024676;28;20044;-67
2022/04/24 01:55:21;;;;;;;11.40;9.30;;;7.30;70.00;;;;;;5008593;28;20048;-67
2022/04/24 01:57:47;;;;;;;12.93;9.23;;;7.20;70.20;;;;;;5004105;28;20061;-67
2022/04/24 02:00:13;;;;;;;11.83;8.63;;;7.20;70.40;;;;;;4988682;28;20491;-67
2022/04/24 02:02:39;;;;;;;11.52;9.10;;;7.20;70.40;;;;;;5025897;28;20045;-67
2022/04/24 02:05:05;;;;;;;11.20;9.20;;;7.20;70.40;;;;;;5010068;28;20422;-67
2022/04/24 02:07:31;;;;;;;12.55;8.77;;;7.20;70.30;;;;;;5017268;28;20409;-67
2022/04/24 02:09:56;;;;;;;12.00;8.87;;;7.30;70.20;;;;;;5024134;28;20045;-67
2022/04/24 02:12:22;;;;;;;13.63;9.40;;;7.20;70.00;;;;;;5005908;28;20033;-67
2022/04/24 02:14:48;;;;;;;11.47;9.13;;;7.20;70.10;;;;;;5021133;28;20078;-67
2022/04/24 02:17:13;;;;;;;11.80;8.83;;;7.20;70.20;;;;;;5004042;28;20383;-67
2022/04/24 02:19:39;;;;;;;11.93;8.73;;;7.10;70.40;;;;;;5024335;28;20463;-67
2022/04/24 02:22:05;;;;;;;11.40;8.97;;;7.10;70.30;;;;;;5035540;28;20077;-67
2022/04/24 02:24:31;;;;;;;13.68;9.65;;;7.10;70.20;;;;;;5026461;28;20532;-67
2022/04/24 02:26:57;;;;;;;10.73;8.50;;;7.10;70.20;;;;;;5024500;28;20068;-67
2022/04/24 02:29:22;;;;;;;13.00;8.97;;;7.10;69.80;;;;;;5038533;28;20045;-67
2022/04/24 02:31:48;;;;;;;10.40;8.93;;;7.10;69.90;;;;;;5037533;28;20476;-67
2022/04/24 02:34:14;;;;;;;11.60;8.73;;;7.10;69.90;;;;;;5025103;28;20033;-67
2022/04/24 02:36:39;;;;;;;11.13;9.33;;;7.10;69.80;;;;;;5012775;28;20107;-67
2022/04/24 02:39:05;;;;;;;12.10;8.57;;;7.10;69.90;;;;;;5041471;28;20040;-67
2022/04/24 02:41:31;;;;;;;11.17;8.77;;;7.10;69.80;;;;;;5040032;28;20131;-67
2022/04/24 02:43:57;;;;;;;12.20;9.05;;;7.10;69.90;;;;;;5021227;28;20029;-67
2022/04/24 02:46:22;;;;;;;10.33;8.53;;;7.00;69.90;;;;;;5007805;28;20128;-67
2022/04/24 02:48:48;;;;;;;11.97;9.60;;;7.00;69.90;;;;;;5018554;28;20037;-67
2022/04/24 02:51:14;;;;;;;13.47;9.93;;;7.00;69.80;;;;;;5018672;28;20041;-67
2022/04/24 02:53:40;;;;;;;10.73;8.73;;;7.00;69.80;;;;;;5022387;28;20033;-67
2022/04/24 02:56:05;;;;;;;14.53;9.10;;;7.00;69.80;;;;;;5033342;28;20814;-67
2022/04/24 02:58:31;;;;;;;12.23;8.90;;;7.00;69.70;;;;;;5008056;28;20143;-67
2022/04/24 03:00:57;;;;;;;13.67;9.13;;;7.00;69.50;;;;;;5022946;28;20069;-67
2022/04/24 03:03:22;;;;;;;12.60;9.43;;;7.00;69.40;;;;;;5025013;28;20037;-67
2022/04/24 03:05:49;;;;;;;12.40;9.03;;;7.00;69.50;;;;;;5014378;28;20558;-67
2022/04/24 03:08:16;;;;;;;10.52;8.73;;;7.00;69.70;;;;;;5041915;28;20051;-67
2022/04/24 03:10:42;;;;;;;10.02;8.68;;;6.90;69.50;;;;;;5028198;28;20044;-67
2022/04/24 03:13:08;;;;;;;13.20;9.20;;;6.90;69.60;;;;;;5014626;28;20044;-67
2022/04/24 03:15:34;;;;;;;13.27;9.48;;;6.90;69.60;;;;;;5021117;28;20045;-67
2022/04/24 03:18:00;;;;;;;12.27;9.73;;;6.90;69.50;;;;;;5031787;28;20040;-67
2022/04/24 03:20:26;;;;;;;11.57;8.87;;;6.90;69.60;;;;;;5008200;28;20044;-67
2022/04/24 03:22:52;;;;;;;11.63;9.00;;;6.90;69.60;;;;;;5043784;28;20045;-67
2022/04/24 03:25:18;;;;;;;11.73;9.10;;;6.90;69.60;;;;;;5027073;28;20041;-67
2022/04/24 03:27:44;;;;;;;10.87;9.07;;;6.90;69.50;;;;;;5046272;28;20079;-67
2022/04/24 03:30:10;;;;;;;11.30;9.10;;;6.90;69.80;;;;;;5042236;28;20043;-67
2022/04/24 03:32:36;;;;;;;11.52;9.10;;;6.90;69.70;;;;;;5044939;28;20072;-67
2022/04/24 03:35:04;;;;;;;11.25;9.05;;;6.80;69.60;;;;;;5046174;28;20049;-67
2022/04/24 03:37:30;;;;;;;11.00;8.70;;;6.90;69.80;;;;;;5045043;28;20098;-67
2022/04/24 03:39:56;;;;;;;11.38;9.30;;;6.80;69.60;;;;;;5045888;28;20523;-67
2022/04/24 03:42:22;;;;;;;13.30;9.60;;;6.80;69.80;;;;;;5022581;28;20048;-67
2022/04/24 03:44:47;;;;;;;11.40;8.83;;;6.80;69.80;;;;;;5043624;28;20091;-67
2022/04/24 03:47:14;;;;;;;11.40;8.50;;;6.80;69.90;;;;;;5017547;28;20055;-67
2022/04/24 03:49:40;;;;;;;11.68;8.93;;;6.70;70.00;;;;;;5013029;28;20052;-67
2022/04/24 03:52:07;;;;;;;11.90;8.43;;;6.70;70.00;;;;;;5021325;28;20046;-67
2022/04/24 03:54:32;;;;;;;14.38;9.13;;;6.70;70.20;;;;;;5041147;28;20037;-67
2022/04/24 03:56:58;;;;;;;11.93;9.00;;;6.70;70.30;;;;;;5027012;28;20167;-67
2022/04/24 03:59:24;;;;;;;11.30;8.40;;;6.70;70.20;;;;;;5012457;28;20048;-67
2022/04/24 04:01:49;;;;;;;12.20;7.93;;;6.80;70.10;;;;;;5044653;28;20045;-67
2022/04/24 04:04:15;;;;;;;11.50;8.53;;;6.80;70.10;;;;;;5043227;28;20571;-67
2022/04/24 04:06:41;;;;;;;11.83;8.83;;;6.80;70.00;;;;;;5028004;28;20044;-67
2022/04/24 04:09:07;;;;;;;11.70;8.83;;;6.80;70.00;;;;;;5043202;28;20040;-67
2022/04/24 04:11:32;;;;;;;9.87;8.00;;;6.80;70.10;;;;;;5043602;28;20049;-67
2022/04/24 04:13:58;;;;;;;11.13;7.83;;;6.80;70.00;;;;;;5042710;28;20037;-67
2022/04/24 04:16:24;;;;;;;12.17;8.53;;;6.80;70.10;;;;;;5039795;28;20037;-67
2022/04/24 04:18:50;;;;;;;11.47;8.87;;;6.80;70.10;;;;;;5032745;28;20064;-67
2022/04/24 04:21:15;;;;;;;15.23;9.20;;;6.70;70.40;;;;;;5037546;28;20065;-67
2022/04/24 04:23:41;;;;;;;11.17;8.00;;;6.70;70.40;;;;;;5026276;28;20501;-67
2022/04/24 04:26:07;;;;;;;10.97;8.40;;;6.70;70.40;;;;;;5029668;28;20493;-67
2022/04/24 04:28:32;;;;;;;12.27;9.50;;;6.80;70.30;;;;;;5010746;28;20040;-67
2022/04/24 04:30:58;;;;;;;12.57;8.53;;;6.80;70.10;;;;;;5042261;28;20728;-67
2022/04/24 04:33:24;;;;;;;12.33;8.40;;;6.80;70.30;;;;;;5036766;28;20048;-67
2022/04/24 04:35:50;;;;;;;13.47;8.47;;;6.80;70.30;;;;;;5028683;28;20036;-67
2022/04/24 04:38:15;;;;;;;12.77;8.73;;;6.80;70.10;;;;;;5042760;28;20045;-67
2022/04/24 04:40:41;;;;;;;12.50;8.50;;;6.80;70.40;;;;;;5025758;28;20069;-67
2022/04/24 04:43:07;;;;;;;12.80;8.23;;;6.80;70.40;;;;;;5027593;28;20094;-67
2022/04/24 04:45:33;;;;;;;9.88;8.02;;;6.90;70.10;;;;;;5043386;28;20073;-67
2022/04/24 04:47:59;;;;;;;13.13;7.53;;;6.90;70.20;;;;;;5040829;28;20068;-67
2022/04/24 04:50:24;;;;;;;9.33;7.83;;;6.80;70.10;;;;;;5029769;28;20037;-67
2022/04/24 04:52:50;;;;;;;9.67;7.67;;;6.90;70.10;;;;;;5038237;28;20114;-67
2022/04/24 04:55:16;;;;;;;11.37;7.80;;;6.80;70.30;;;;;;5023249;28;20107;-67
2022/04/24 04:57:43;;;;;;;11.80;8.07;;;6.80;70.40;;;;;;5026206;28;20045;-67
2022/04/24 05:00:11;;;;;;;13.13;9.10;;;6.80;70.20;;;;;;5011421;28;20292;-67
2022/04/24 05:02:38;;;;;;;9.75;7.28;;;6.80;70.50;;;;;;5042707;28;20127;-67
2022/04/24 05:05:05;;;;;;;10.27;7.55;;;6.90;70.30;;;;;;5010361;28;20049;-67
2022/04/24 05:07:31;;;;;;;10.88;7.65;;;6.90;70.40;;;;;;5025665;28;20120;-67
2022/04/24 05:09:56;;;;;;;10.53;7.83;;;6.90;70.40;;;;;;5027081;28;20129;-67
2022/04/24 05:12:30;;;;;;;12.60;7.73;;;6.90;70.50;;;;;;5040570;28;20072;-67
2022/04/24 05:15:06;;;;;;;10.23;7.55;;;6.90;70.20;;;;;;5025590;28;20087;-67
2022/04/24 05:17:36;;;;;;;12.00;7.35;;;7.00;70.30;;;;;;5035455;28;20025;-67
2022/04/24 05:20:07;;;;;;;9.40;7.50;;;7.00;70.10;;;;;;5010461;28;20075;-67
2022/04/24 05:22:32;;;;;;;10.75;7.82;;;7.10;70.00;;;;;;5041086;28;20549;-67
2022/04/24 05:24:59;;;;;;;11.57;7.93;;;7.20;69.80;;;;;;5022817;28;20148;-67
2022/04/24 05:27:25;;;;;;;11.60;8.05;;;7.20;69.70;;;;;;5027145;28;20033;-67
2022/04/24 05:29:51;;;;;;;12.02;7.55;;;7.20;69.80;;;;;;5021627;28;20508;-67
2022/04/24 05:32:16;;;;;;;13.33;7.57;;;7.30;70.00;;;;;;5023563;28;20106;-67
2022/04/24 05:34:42;;;;;;;10.73;7.23;;;7.30;69.80;;;;;;5040576;28;20037;-67
2022/04/24 05:37:08;;;;;;;12.90;7.83;;;7.40;69.60;;;;;;5040359;28;20638;-67
2022/04/24 05:39:34;;;;;;;10.15;7.28;;;7.50;69.40;;;;;;5007254;28;20029;-67
2022/04/24 05:42:00;;;;;;;11.93;7.87;;;7.50;69.40;;;;;;5040630;28;20033;-67
2022/04/24 05:44:26;;;;;;;12.60;8.13;;;7.50;69.40;;;;;;5041771;28;20048;-67
2022/04/24 05:46:52;;;;;;;10.80;7.45;;;7.60;69.30;;;;;;5009000;28;20147;-67
2022/04/24 05:49:18;;;;;;;10.10;7.77;;;7.70;69.20;;;;;;5039812;28;20047;-67
2022/04/24 05:51:43;;;;;;;11.23;7.30;;;7.70;69.00;;;;;;5039892;28;20337;-67
2022/04/24 05:54:10;;;;;;;13.43;7.43;;;7.80;68.90;;;;;;5044397;28;20079;-67
2022/04/24 05:56:35;;;;;;;12.38;7.78;;;7.80;68.80;;;;;;5046117;28;20087;-67
2022/04/24 05:59:03;;;;;;;11.30;7.67;;;8.00;68.60;;;;;;5040640;28;20056;-67
2022/04/24 06:01:28;;;;;;;12.07;7.60;;;8.00;68.70;;;;;;5044111;28;20048;-67
2022/04/24 06:03:54;;;;;;;12.70;7.40;;;8.00;68.60;;;;;;5014486;28;20524;-67
2022/04/24 06:06:20;;;;;;;9.90;7.87;;;8.10;68.50;;;;;;5046778;28;20106;-67
2022/04/24 06:08:45;;;;;;;11.07;7.90;;;8.10;68.60;;;;;;5014949;28;20041;-67
2022/04/24 06:11:11;;;;;;;11.83;8.27;;;8.20;68.60;;;;;;5026178;28;20053;-67
2022/04/24 06:13:37;;;;;;;11.97;7.93;;;8.20;68.70;;;;;;5018786;28;20037;-67
2022/04/24 06:16:03;;;;;;;13.70;8.23;;;8.30;68.40;;;;;;5026172;28;20041;-67
2022/04/24 06:18:29;;;;;;;14.02;8.18;;;8.40;68.50;;;;;;5043998;28;20053;-67
2022/04/24 06:20:55;;;;;;;10.93;8.50;;;8.50;68.20;;;;;;5045687;28;20052;-67
2022/04/24 06:23:21;;;;;;;10.10;7.63;;;8.60;68.40;;;;;;5037531;28;20338;-67
2022/04/24 06:25:47;;;;;;;10.82;8.25;;;8.70;68.60;;;;;;5027116;28;20049;-67
2022/04/24 06:28:13;;;;;;;11.03;8.03;;;8.80;68.60;;;;;;5044430;28;20029;-68
2022/04/24 06:30:41;;;;;;;12.10;7.60;;;8.90;68.70;;;;;;5034027;28;20088;-68
2022/04/24 06:33:11;;;;;;;12.30;8.20;;;9.10;67.90;;;;;;5034202;28;20033;-68
2022/04/24 06:35:38;;;;;;;12.10;8.65;;;9.20;67.20;;;;;;4996046;28;20120;-68
2022/04/24 06:38:04;;;;;;;10.95;6.85;;;9.40;67.10;;;;;;5029252;28;20422;-68
2022/04/24 06:40:31;;;;;;;9.70;7.25;;;9.90;65.80;;;;;;5025779;28;20585;-68
2022/04/24 06:43:04;;;;;;;10.82;7.68;;;10.50;64.00;;;;;;5028247;28;20450;-68
2022/04/24 06:45:43;;;;;;;10.90;8.15;;;11.00;61.70;;;;;;5045837;28;20059;-66
2022/04/24 06:48:16;;;;;;;11.43;7.65;;;11.10;60.80;;;;;;5033172;28;20563;-66
2022/04/24 06:50:46;;;;;;;10.98;8.25;;;10.80;61.50;;;;;;5030753;28;20635;-66
2022/04/24 06:53:13;;;;;;;10.75;7.20;;;10.50;62.30;;;;;;5044043;28;20079;-66
2022/04/24 06:55:42;;;;;;;11.20;7.22;;;10.40;62.70;;;;;;5044862;28;20047;-66
2022/04/24 06:58:10;;;;;;;10.18;7.60;;;10.30;63.00;;;;;;5043776;28;20041;-66
2022/04/24 07:00:38;;;;;;;12.07;7.40;;;10.20;63.10;;;;;;5043667;28;20041;-66
2022/04/24 07:03:14;;;;;;;9.88;7.30;;;10.20;63.00;;;;;;5043691;28;20049;-66
2022/04/24 07:05:42;;;;;;;8.50;6.50;;;10.10;63.20;;;;;;5018914;28;20869;-66
2022/04/24 07:08:08;;;;;;;10.60;6.53;;;10.10;63.30;;;;;;5023029;28;20132;-66
2022/04/24 07:10:33;;;;;;;12.77;7.00;;;10.20;63.40;;;;;;5013897;28;20170;-66
2022/04/24 07:13:00;;;;;;;9.77;6.30;;;10.30;63.10;;;;;;5016668;28;20117;-66
2022/04/24 07:15:29;;;;;;;8.35;6.40;;;10.30;62.80;;;;;;5041676;28;20148;-66
2022/04/24 07:17:56;;;;;;;9.35;5.85;;;10.40;63.20;;;;;;5039228;28;20094;-67
2022/04/24 07:20:22;;;;;;;8.90;5.45;;;10.50;62.50;;;;;;5041901;28;20061;-66
2022/04/24 07:22:49;;;;;;;8.75;4.65;;;10.60;61.40;;;;;;5044758;28;20175;-66
2022/04/24 07:25:23;;;;;;;6.70;4.70;;;10.60;61.00;;;;;;5024441;28;20374;-66
2022/04/24 07:27:50;;;;;;;11.13;5.10;;;10.60;60.60;;;;;;5043036;28;20037;-66
2022/04/24 07:30:17;;;;;;;7.90;4.55;;;10.60;60.90;;;;;;5020661;28;20128;-67
2022/04/24 07:32:53;;;;;;;6.88;4.70;;;10.60;61.00;;;;;;5025672;28;20126;-66
2022/04/24 07:35:25;;;;;;;7.50;4.18;;;10.80;60.60;;;;;;5038497;28;20512;-66
2022/04/24 07:37:51;;;;;;;6.57;4.00;;;10.80;59.30;;;;;;5017982;28;20047;-66
2022/04/24 07:40:22;;;;;;;6.53;3.22;;;10.80;59.70;;;;;;5044916;28;20429;-66
2022/04/24 07:42:59;;;;;;;9.02;3.83;;;10.90;58.50;;;;;;5045197;28;20033;-66
2022/04/24 07:45:35;;;;;;;6.40;4.25;;;11.00;58.40;;;;;;5044680;28;20125;-66
2022/04/24 07:48:02;;;;;;;8.27;3.78;;;11.10;59.20;;;;;;5018523;28;20059;-69
2022/04/24 07:50:33;;;;;;;5.80;3.33;;;11.20;58.80;;;;;;5016828;28;20041;-66
2022/04/24 07:53:00;;;;;;;6.80;3.35;;;11.30;58.50;;;;;;5028596;28;20111;-66
2022/04/24 07:55:26;;;;;;;5.50;2.72;;;11.40;59.10;;;;;;5044264;28;20036;-66
2022/04/24 07:57:54;;;;;;;4.70;2.50;;;11.50;58.70;;;;;;5024415;28;20041;-66
2022/04/24 08:00:22;;;;;;;6.78;2.10;;;11.60;57.90;;;;;;5038722;28;20535;-66
2022/04/24 08:02:52;;;;;;;3.92;2.00;;;11.70;56.20;;;;;;5030842;28;20114;-66
2022/04/24 08:05:27;;;;;;;4.47;2.00;;;11.80;55.30;;;;;;5023944;28;20041;-66
2022/04/24 08:07:55;;;;;;;3.30;2.15;;;11.80;55.50;;;;;;5029970;28;20443;-66
2022/04/24 08:10:22;;;;;;;2.38;1.65;;;11.90;55.10;;;;;;5048071;28;20044;-66
2022/04/24 08:12:48;;;;;;;5.10;2.20;;;12.00;55.30;;;;;;5042153;28;20474;-66
2022/04/24 08:15:14;;;;;;;4.18;2.00;;;12.10;55.30;;;;;;5024908;28;20033;-66
2022/04/24 08:17:40;;;;;;;7.05;2.45;;;12.30;55.00;;;;;;5038851;28;20092;-66
2022/04/24 08:20:08;;;;;;;3.67;1.63;;;12.40;56.00;;;;;;5040830;28;20085;-66
2022/04/24 08:22:42;;;;;;;2.75;1.85;;;12.60;53.60;;;;;;5048141;28;20055;-66
2022/04/24 08:25:09;;;;;;;3.75;1.75;;;12.70;53.60;;;;;;5036749;28;20075;-66
2022/04/24 08:27:36;;;;;;;3.55;1.95;;;12.70;54.50;;;;;;5026490;28;20080;-66
2022/04/24 08:30:04;;;;;;;3.58;1.42;;;12.90;53.30;;;;;;5046346;28;20041;-66
2022/04/24 08:32:30;;;;;;;2.92;1.75;;;13.00;52.30;;;;;;5044672;28;20045;-66
2022/04/24 08:34:56;;;;;;;3.67;1.90;;;13.10;53.30;;;;;;5015432;28;20378;-66
2022/04/24 08:37:26;;;;;;;4.13;1.77;;;13.20;51.40;;;;;;5031071;28;20540;-67
2022/04/24 08:39:53;;;;;;;3.20;1.52;;;13.20;51.20;;;;;;5027201;28;20049;-67
2022/04/24 08:42:21;;;;;;;5.15;1.77;;;13.30;51.80;;;;;;5019968;28;20045;-67
2022/04/24 08:44:49;;;;;;;4.43;1.65;;;13.40;52.20;;;;;;5047859;28;20116;-67
2022/04/24 08:47:16;;;;;;;4.35;1.80;;;13.40;51.50;;;;;;5043507;28;20044;-67
2022/04/24 08:49:43;;;;;;;4.47;2.22;;;13.50;51.70;;;;;;5028008;28;20075;-67
2022/04/24 08:52:10;;;;;;;5.07;2.38;;;13.60;51.90;;;;;;5028331;28;20065;-67
2022/04/24 08:54:43;;;;;;;3.10;1.63;;;13.70;51.70;;;;;;5040064;28;20115;-67
2022/04/24 08:57:09;;;;;;;5.17;2.00;;;13.80;51.70;;;;;;5031434;28;20041;-67
2022/04/24 08:59:37;;;;;;;3.77;2.00;;;13.90;51.80;;;;;;5035260;28;20373;-67
2022/04/24 09:02:03;;;;;;;3.53;2.00;;;14.00;51.00;;;;;;5041328;28;20318;-67
2022/04/24 09:04:33;;;;;;;2.50;1.70;;;14.00;51.00;;;;;;5038723;28;20281;-68
2022/04/24 09:07:07;;;;;;;3.90;1.93;;;14.10;51.20;;;;;;5031489;28;20276;-68
2022/04/24 09:09:41;;;;;;;3.03;1.97;;;14.10;50.40;;;;;;5018504;28;20346;-68
2022/04/24 09:12:08;;;;;;;2.30;1.60;;;14.20;50.20;;;;;;5036123;28;21183;-68
2022/04/24 09:14:35;;;;;;;3.70;1.83;;;14.30;49.80;;;;;;5044072;28;20337;-67
2022/04/24 09:17:07;;;;;;;2.50;1.50;;;14.30;49.60;;;;;;5041930;28;20349;-67
2022/04/24 09:19:36;;;;;;;3.57;1.93;;;14.40;49.10;;;;;;5039203;28;20390;-67
2022/04/24 09:22:07;;;;;;;3.43;1.90;;;14.40;49.50;;;;;;5043411;28;20370;-67
2022/04/24 09:24:44;;;;;;;3.83;1.80;;;14.50;50.00;;;;;;5034830;28;20306;-67
2022/04/24 09:27:12;;;;;;;4.53;1.80;;;14.60;49.50;;;;;;5013379;28;20951;-68
2022/04/24 09:29:51;;;;;;;4.10;1.70;;;14.60;49.20;;;;;;5033376;28;20372;-67
2022/04/24 09:32:16;;;;;;;4.17;1.83;;;14.70;47.50;;;;;;5030571;28;20664;-68
2022/04/24 09:34:42;;;;;;;4.23;2.23;;;14.70;47.80;;;;;;5008616;28;20287;-68
2022/04/24 09:37:09;;;;;;;4.87;2.13;;;14.70;48.90;;;;;;5005615;28;20071;-68
2022/04/24 09:39:37;;;;;;;3.67;1.87;;;14.70;48.80;;;;;;5013368;28;20049;-68
2022/04/24 09:42:11;;;;;;;3.27;2.00;;;14.70;49.20;;;;;;5036071;28;20288;-68
2022/04/24 09:44:41;;;;;;;5.00;2.37;;;14.80;48.90;;;;;;5039619;28;20287;-68
2022/04/24 09:47:07;;;;;;;4.27;2.27;;;14.90;48.40;;;;;;5021537;28;20287;-69
2022/04/24 09:49:41;;;;;;;3.83;2.23;;;15.00;48.50;;;;;;5039062;28;20371;-69
2022/04/24 09:52:13;;;;;;;2.75;1.90;;;15.00;47.80;;;;;;5016118;28;20326;-69
2022/04/24 09:54:44;;;;;;;4.93;2.00;;;15.10;47.00;;;;;;5022533;28;20045;-69
2022/04/24 09:57:11;;;;;;;3.60;1.80;;;15.00;47.40;;;;;;5039855;28;20287;-69
2022/04/24 09:59:43;;;;;;;4.57;2.00;;;15.00;47.90;;;;;;5024722;28;20938;-69
2022/04/24 10:02:10;;;;;;;4.03;2.13;;;15.10;48.70;;;;;;5038369;28;20366;-69
2022/04/24 10:04:38;;;;;;;4.87;2.10;;;15.20;48.30;;;;;;5037865;28;20294;-69
2022/04/24 10:07:09;;;;;;;7.37;2.50;;;15.30;48.40;;;;;;5053695;28;20673;-69
2022/04/24 10:09:36;;;;;;;4.87;2.63;;;15.40;49.40;;;;;;5030804;28;20276;-69
2022/04/24 10:12:07;;;;;;;5.93;2.57;;;15.50;48.90;;;;;;5030037;28;20993;-69
2022/04/24 10:14:39;;;;;;;7.00;2.83;;;15.50;48.60;;;;;;5021175;28;20276;-69
2022/04/24 10:17:26;;;;;;;3.97;2.27;;;15.50;49.20;;;;;;5035908;28;20275;-69
2022/04/24 10:20:10;;;;;;;4.70;2.30;;;15.60;47.90;;;;;;5018101;28;20663;-69
2022/04/24 10:22:39;;;;;;;7.40;2.43;;;15.60;48.20;;;;;;5023934;28;20287;-69
2022/04/24 10:25:07;;;;;;;3.97;2.47;;;15.70;47.90;;;;;;5038551;28;21111;-69
2022/04/24 10:27:41;;;;;;;5.00;2.47;;;15.80;47.60;;;;;;5041342;28;20341;-69
2022/04/24 10:30:11;;;;;;;4.57;2.22;;;15.70;47.20;;;;;;5020918;28;20314;-69
2022/04/24 10:32:37;;;;;;;7.43;2.50;;;15.70;47.10;;;;;;5039489;28;20045;-69
2022/04/24 10:35:15;;;;;;;2.97;1.60;;;15.70;46.90;;;;;;5022390;28;20271;-69
2022/04/24 10:37:42;;;;;;;5.80;2.50;;;15.80;46.00;;;;;;5033290;28;20124;-69
2022/04/24 10:40:13;;;;;;;5.23;2.10;;;15.80;46.50;;;;;;5040903;28;20366;-69
2022/04/24 10:42:39;;;;;;;4.03;2.27;;;15.90;47.10;;;;;;5031111;28;20367;-69
2022/04/24 10:45:10;;;;;;;6.57;2.90;;;15.90;46.80;;;;;;5038479;28;20358;-69
2022/04/24 10:47:47;;;;;;;5.00;2.33;;;16.00;48.80;;;;;;5041169;28;20051;-69
2022/04/24 10:50:13;;;;;;;7.17;2.83;;;16.00;49.20;;;;;;5035319;28;20625;-69
2022/04/24 10:52:43;;;;;;;5.63;2.63;;;16.10;49.20;;;;;;5011568;28;20370;-69
2022/04/24 10:55:22;;;;;;;5.17;2.87;;;16.10;49.60;;;;;;5023091;28;20405;-69
2022/04/24 10:58:02;;;;;;;9.43;2.97;;;16.20;49.90;;;;;;5038599;28;20389;-69
2022/04/24 11:00:34;;;;;;;7.13;2.83;;;16.30;49.60;;;;;;5042303;28;20378;-69
2022/04/24 11:03:14;;;;;;;6.43;2.80;;;16.30;50.00;;;;;;5026359;28;21040;-70
2022/04/24 11:05:47;;;;;;;6.53;3.13;;;16.30;49.00;;;;;;5031888;28;20287;-69
2022/04/24 11:08:18;;;;;;;5.13;2.80;;;16.30;49.70;;;;;;5026141;28;20287;-70
2022/04/24 11:10:45;;;;;;;4.73;3.10;;;16.30;49.50;;;;;;5043384;28;20374;-70
2022/04/24 11:13:13;;;;;;;7.90;2.70;;;16.30;49.60;;;;;;5014637;28;20314;-69
2022/04/24 11:15:44;;;;;;;5.73;2.97;;;16.30;50.00;;;;;;5024167;28;20283;-69
2022/04/24 11:18:24;;;;;;;7.07;3.40;;;16.30;49.50;;;;;;5038870;28;20276;-69
2022/04/24 11:21:07;;;;;;;10.07;3.23;;;16.30;49.70;;;;;;5039297;28;20333;-70
2022/04/24 11:23:39;;;;;;;7.57;3.40;;;16.20;49.30;;;;;;5059966;28;20291;-69
2022/04/24 11:26:12;;;;;;;5.93;2.53;;;16.20;49.30;;;;;;5040029;28;20283;-70
2022/04/24 11:28:45;;;;;;;4.33;2.67;;;16.20;49.90;;;;;;5037885;28;20280;-69
2022/04/24 11:31:13;;;;;;;5.53;2.97;;;16.20;49.10;;;;;;5046084;28;20871;-69
2022/04/24 11:33:59;;;;;;;7.53;3.53;;;16.30;48.80;;;;;;5046863;28;20292;-69
2022/04/24 11:36:31;;;;;;;6.27;2.93;;;16.30;49.60;;;;;;5024620;28;20276;-69
2022/04/24 11:38:57;;;;;;;7.03;3.03;;;16.40;50.70;;;;;;5048007;28;20320;-70
2022/04/24 11:41:27;;;;;;;5.43;3.60;;;16.50;50.20;;;;;;5044500;28;20295;-70
2022/04/24 11:50:13;;;;;;;8.17;3.20;;;16.40;49.40;;;;;;5046674;28;20295;-69
2022/04/24 11:52:20;;;;;;;7.22;4.18;;;16.50;50.20;;;;;;5043608;28;20489;-70
2022/04/24 11:54:47;;;;;;;6.90;3.50;;;16.40;50.80;;;;;;5030202;28;20053;-70
2022/04/24 11:57:13;;;;;;;7.07;3.20;;;16.50;50.30;;;;;;5042962;28;20315;-70
2022/04/24 11:59:39;;;;;;;7.53;3.30;;;16.50;49.80;;;;;;5024266;28;20284;-70
2022/04/24 12:02:11;;;;;;;7.53;3.87;;;16.50;49.30;;;;;;5008248;28;20288;-70
2022/04/24 12:04:38;;;;;;;6.80;3.40;;;16.50;49.60;;;;;;5023854;28;20083;-70
2022/04/24 12:07:09;;;;;;;7.70;3.77;;;16.40;50.00;;;;;;5011521;28;21714;-70
2022/04/24 12:09:37;;;;;;;7.93;3.60;;;16.40;49.90;;;;;;5027574;28;20354;-70
2022/04/24 12:12:14;;;;;;;6.73;3.80;;;16.40;49.60;;;;;;5027219;28;20342;-70
2022/04/24 12:14:48;;;;;;;7.47;4.10;;;16.30;49.90;;;;;;5048805;28;20299;-70
2022/04/24 12:17:14;;;;;;;6.00;4.23;;;16.30;50.20;;;;;;5031305;28;20771;-70
2022/04/24 12:19:48;;;;;;;7.97;3.83;;;16.40;50.30;;;;;;5011640;28;20296;-70
2022/04/24 12:22:14;;;;;;;11.23;4.05;;;16.40;49.90;;;;;;5045990;28;20048;-70
2022/04/24 12:24:46;;;;;;;7.87;4.20;;;16.20;49.60;;;;;;5048343;28;20048;-70
2022/04/24 12:27:14;;;;;;;6.90;4.10;;;16.10;49.70;;;;;;5047028;28;20426;-69
2022/04/24 12:29:42;;;;;;;9.40;4.20;;;16.00;50.00;;;;;;5046459;28;20370;-69
2022/04/24 12:32:12;;;;;;;6.23;3.50;;;15.90;50.50;;;;;;5046287;28;20342;-70
2022/04/24 12:34:39;;;;;;;8.83;3.70;;;15.90;51.20;;;;;;5046499;28;20310;-69
2022/04/24 12:37:05;;;;;;;7.97;3.57;;;15.90;51.10;;;;;;5045321;28;20286;-70
2022/04/24 12:39:32;;;;;;;6.60;3.47;;;16.00;50.90;;;;;;5041717;28;20865;-70
2022/04/24 12:42:09;;;;;;;7.03;3.63;;;16.20;50.80;;;;;;5028758;28;20327;-70
2022/04/24 12:44:34;;;;;;;7.40;3.73;;;16.30;49.70;;;;;;5048255;28;20283;-70
2022/04/24 12:47:02;;;;;;;5.00;3.33;;;16.20;49.60;;;;;;5045715;28;20290;-70
2022/04/24 12:49:29;;;;;;;10.40;3.73;;;16.20;49.90;;;;;;5042307;28;20056;-70
2022/04/24 12:51:55;;;;;;;6.87;4.27;;;16.20;50.20;;;;;;5035978;28;20310;-70
2022/04/24 12:54:21;;;;;;;9.10;3.80;;;16.20;50.60;;;;;;4994719;28;20284;-70